Atlantic Osprey — CFH8950 — position and weather

sailwx.info

Track history (hours):
 
Tides and Currents Weather Stations Pressure Air Temp Water Temp Dewpoint Dewpoint Depression Visibility Wind Speed Wind Dir Waves Ship Positions

Atlantic Osprey

Last reported at 2014-Aug-20 18:11 UTC. Time now 2014-Aug-23 19:51 UTC.
Position N 47°16' W 052°27'.

Length 3 m; draft 6.2 m.

Type: Tug. MMSI: 316004850.

Date/timePositionNaut miles runAvg speedWind from/ knotsBaromVisibWave heightAir tempDewpointWater temp
2014-Aug-20 18:11N 47°16' W 052°27'  
2014-Aug-18 10:28N 47°21' W 052°42'1110.6
2014-Aug-18 09:27N 47°31' W 052°36'5 5.5
2014-Aug-18 08:29N 47°34' W 052°42'0 0.0
2014-Aug-18 07:33N 47°34' W 052°42'0 0.0
2014-Aug-18 06:30N 47°34' W 052°42'0 0.0
2014-Aug-18 05:33N 47°34' W 052°42'0 0.0
2014-Aug-18 04:33N 47°34' W 052°42'0 0.0
2014-Aug-18 03:32N 47°34' W 052°42'0 0.0
2014-Aug-18 02:29N 47°34' W 052°42'0 0.0
2014-Aug-18 01:32N 47°34' W 052°42'0 0.0
2014-Aug-18 00:26N 47°34' W 052°42'0 0.0
2014-Aug-17 18:29N 47°34' W 052°42'0 0.0
2014-Aug-17 17:32N 47°34' W 052°42'0 0.0
2014-Aug-17 16:31N 47°34' W 052°42'0 0.0
2014-Aug-17 15:29N 47°34' W 052°42'0 0.0
2014-Aug-17 14:32N 47°34' W 052°42'0 0.0
2014-Aug-17 13:31N 47°34' W 052°42'0 0.0
2014-Aug-17 12:30N 47°34' W 052°42'0 0.0
2014-Aug-17 11:29N 47°34' W 052°42'0 0.0
2014-Aug-17 10:33N 47°34' W 052°42'0 0.0
2014-Aug-17 09:30N 47°34' W 052°42'0 0.0
2014-Aug-17 08:29N 47°34' W 052°42'0 0.0
2014-Aug-17 07:32N 47°34' W 052°42'0 0.0
2014-Aug-17 06:30N 47°34' W 052°42'0 0.0
2014-Aug-17 05:32N 47°34' W 052°42'0 0.0
2014-Aug-17 04:29N 47°34' W 052°42'0 0.0
2014-Aug-17 03:32N 47°34' W 052°42'0 0.0
2014-Aug-17 02:33N 47°34' W 052°42'0 0.0
2014-Aug-17 01:30N 47°34' W 052°42'0 0.0
2014-Aug-17 00:32N 47°34' W 052°42'0 0.0
2014-Aug-16 23:30N 47°34' W 052°42'0 0.0
2014-Aug-16 22:32N 47°34' W 052°42'0 0.0
2014-Aug-16 21:30N 47°34' W 052°42'0 0.0
2014-Aug-16 20:33N 47°34' W 052°42'0 0.0
2014-Aug-16 19:31N 47°34' W 052°42'0 0.0
2014-Aug-16 18:29N 47°34' W 052°42'0 0.0
2014-Aug-16 17:32N 47°34' W 052°42'0 0.0
2014-Aug-16 16:31N 47°34' W 052°42'0 0.0
2014-Aug-16 15:29N 47°34' W 052°42'0 0.0
2014-Aug-16 14:33N 47°34' W 052°42'0 0.0
2014-Aug-16 13:32N 47°34' W 052°42'0 0.0
2014-Aug-16 12:30N 47°34' W 052°42'0 0.0
2014-Aug-16 11:33N 47°34' W 052°42'0 0.0
2014-Aug-16 10:32N 47°34' W 052°42'0 0.0
2014-Aug-16 09:30N 47°34' W 052°42'0 0.0
2014-Aug-16 08:33N 47°34' W 052°42'0 0.0
2014-Aug-16 07:32N 47°34' W 052°42'0 0.0
2014-Aug-16 06:30N 47°34' W 052°42'0 0.0
2014-Aug-16 05:29N 47°34' W 052°42'0 0.0
2014-Aug-16 04:32N 47°34' W 052°42'0 0.0
2014-Aug-16 03:31N 47°34' W 052°42'0 0.0
2014-Aug-16 02:29N 47°34' W 052°42'0 0.0
2014-Aug-16 01:32N 47°34' W 052°42'0 0.0
2014-Aug-16 00:29N 47°34' W 052°42'0 0.0
2014-Aug-15 23:33N 47°34' W 052°42'0 0.0
2014-Aug-15 22:32N 47°34' W 052°42'0 0.0
2014-Aug-15 21:29N 47°34' W 052°42'0 0.0
2014-Aug-15 20:33N 47°34' W 052°42'0 0.0
2014-Aug-15 19:31N 47°34' W 052°42'0 0.0
2014-Aug-15 18:29N 47°34' W 052°42'2 2.6
2014-Aug-15 17:32N 47°34' W 052°39'1 0.8
2014-Aug-15 16:31N 47°33' W 052°38'0 0.0
2014-Aug-15 15:30N 47°33' W 052°38'0 0.4
2014-Aug-15 14:33N 47°33' W 052°37'0 0.4
2014-Aug-15 13:30N 47°33' W 052°38'2 1.6
2014-Aug-15 12:33N 47°34' W 052°40'1 1.5
2014-Aug-15 11:32N 47°34' W 052°42'0 0.0
2014-Aug-15 10:30N 47°34' W 052°42'0 0.0
2014-Aug-15 09:29N 47°34' W 052°42'0 0.0
2014-Aug-15 08:33N 47°34' W 052°42'0 0.0
2014-Aug-15 07:32N 47°34' W 052°42'0 0.0
2014-Aug-15 06:29N 47°34' W 052°42'0 0.0
2014-Aug-15 05:29N 47°34' W 052°42'0 0.0
2014-Aug-15 04:33N 47°34' W 052°42'0 0.0
2014-Aug-15 03:32N 47°34' W 052°42'0 0.0
2014-Aug-15 02:30N 47°34' W 052°42'0 0.0
2014-Aug-15 01:29N 47°34' W 052°42'0 0.0
2014-Aug-15 00:32N 47°34' W 052°42'0 0.0
2014-Aug-14 23:31N 47°34' W 052°42'0 0.0
2014-Aug-14 22:31N 47°34' W 052°42'0 0.3
2014-Aug-14 21:30N 47°34' W 052°42'0 0.0
2014-Aug-14 20:33N 47°34' W 052°42'0 0.1
2014-Aug-14 19:32N 47°34' W 052°42'0 0.0
2014-Aug-14 18:29N 47°34' W 052°42'6 5.8
2014-Aug-14 17:31N 47°36' W 052°34'0 0.1
2014-Aug-14 16:29N 47°36' W 052°35'1 0.7
2014-Aug-14 15:33N 47°36' W 052°35'0 0.4
2014-Aug-14 14:32N 47°36' W 052°36'0 0.0
2014-Aug-14 13:30N 47°36' W 052°36'0 0.0
2014-Aug-14 12:33N 47°36' W 052°36'2 2.3
2014-Aug-14 11:31N 47°34' W 052°39'2 2.0
2014-Aug-14 10:33N 47°34' W 052°42'0 0.0
2014-Aug-14 09:31N 47°34' W 052°42'0 0.0
2014-Aug-14 08:30N 47°34' W 052°42'0 0.0
2014-Aug-14 07:33N 47°34' W 052°42'0 0.0
2014-Aug-14 06:32N 47°34' W 052°42'0 0.0
2014-Aug-14 05:31N 47°34' W 052°42'0 0.0
2014-Aug-14 04:29N 47°34' W 052°42'0 0.0
2014-Aug-14 03:32N 47°34' W 052°42'0 0.0
2014-Aug-14 02:31N 47°34' W 052°42'0 0.0
2014-Aug-14 01:30N 47°34' W 052°42'0 0.0
2014-Aug-14 00:29N 47°34' W 052°42'0 0.0
2014-Aug-13 23:32N 47°34' W 052°42'0 0.0
2014-Aug-13 22:30N 47°34' W 052°42'0 0.0
2014-Aug-13 21:33N 47°34' W 052°42'0 0.0
2014-Aug-13 20:32N 47°34' W 052°42'0 0.0
2014-Aug-13 19:30N 47°34' W 052°42'0 0.1
2014-Aug-13 18:33N 47°34' W 052°42'0 0.0
2014-Aug-13 17:32N 47°34' W 052°42'0 0.0
2014-Aug-13 16:31N 47°34' W 052°42'0 0.0
2014-Aug-13 15:29N 47°34' W 052°42'0 0.0
2014-Aug-13 14:32N 47°34' W 052°42'0 0.0
2014-Aug-13 13:30N 47°34' W 052°42'0 0.0
2014-Aug-13 12:33N 47°34' W 052°42'0 0.0
2014-Aug-13 11:32N 47°34' W 052°42'0 0.0
2014-Aug-13 10:31N 47°34' W 052°42'0 0.0
2014-Aug-13 09:30N 47°34' W 052°42'0 0.0
2014-Aug-13 08:33N 47°34' W 052°42'0 0.0
2014-Aug-13 07:32N 47°34' W 052°42'0 0.0
2014-Aug-13 06:30N 47°34' W 052°42'0 0.0
2014-Aug-13 05:29N 47°34' W 052°42'0 0.0
2014-Aug-13 04:33N 47°34' W 052°42'0 0.0
2014-Aug-13 03:31N 47°34' W 052°42'0 0.0
2014-Aug-13 02:30N 47°34' W 052°42'0 0.0
2014-Aug-13 01:32N 47°34' W 052°42'0 0.0
2014-Aug-13 00:32N 47°34' W 052°42'0 0.0
2014-Aug-12 23:30N 47°34' W 052°42'9 9.5
2014-Aug-12 22:33N 47°33' W 052°29'1211.3
2014-Aug-12 21:32N 47°31' W 052°12'  
Track history (hours):
 
Tides and Currents Weather Stations Pressure Air Temp Water Temp Dewpoint Dewpoint Depression Visibility Wind Speed Wind Dir Waves Ship Positions

Atlantic Osprey

Last reported at 2014-Aug-20 18:11 UTC. Time now 2014-Aug-23 19:51 UTC.
Position N 47°16' W 052°27'.

Length 3 m; draft 6.2 m.

Type: Tug. MMSI: 316004850.

Date/timePositionNaut miles runAvg speedWind from/ knotsBaromVisibWave heightAir tempDewpointWater temp
2014-Aug-20 18:11N 47°16' W 052°27'  
2014-Aug-18 10:28N 47°21' W 052°42'1110.6
2014-Aug-18 09:27N 47°31' W 052°36'5 5.5
2014-Aug-18 08:29N 47°34' W 052°42'0 0.0
2014-Aug-18 07:33N 47°34' W 052°42'0 0.0
2014-Aug-18 06:30N 47°34' W 052°42'0 0.0
2014-Aug-18 05:33N 47°34' W 052°42'0 0.0
2014-Aug-18 04:33N 47°34' W 052°42'0 0.0
2014-Aug-18 03:32N 47°34' W 052°42'0 0.0
2014-Aug-18 02:29N 47°34' W 052°42'0 0.0
2014-Aug-18 01:32N 47°34' W 052°42'0 0.0
2014-Aug-18 00:26N 47°34' W 052°42'0 0.0
2014-Aug-17 18:29N 47°34' W 052°42'0 0.0
2014-Aug-17 17:32N 47°34' W 052°42'0 0.0
2014-Aug-17 16:31N 47°34' W 052°42'0 0.0
2014-Aug-17 15:29N 47°34' W 052°42'0 0.0
2014-Aug-17 14:32N 47°34' W 052°42'0 0.0
2014-Aug-17 13:31N 47°34' W 052°42'0 0.0
2014-Aug-17 12:30N 47°34' W 052°42'0 0.0
2014-Aug-17 11:29N 47°34' W 052°42'0 0.0
2014-Aug-17 10:33N 47°34' W 052°42'0 0.0
2014-Aug-17 09:30N 47°34' W 052°42'0 0.0
2014-Aug-17 08:29N 47°34' W 052°42'0 0.0
2014-Aug-17 07:32N 47°34' W 052°42'0 0.0
2014-Aug-17 06:30N 47°34' W 052°42'0 0.0
2014-Aug-17 05:32N 47°34' W 052°42'0 0.0
2014-Aug-17 04:29N 47°34' W 052°42'0 0.0
2014-Aug-17 03:32N 47°34' W 052°42'0 0.0
2014-Aug-17 02:33N 47°34' W 052°42'0 0.0
2014-Aug-17 01:30N 47°34' W 052°42'0 0.0
2014-Aug-17 00:32N 47°34' W 052°42'0 0.0
2014-Aug-16 23:30N 47°34' W 052°42'0 0.0
2014-Aug-16 22:32N 47°34' W 052°42'0 0.0
2014-Aug-16 21:30N 47°34' W 052°42'0 0.0
2014-Aug-16 20:33N 47°34' W 052°42'0 0.0
2014-Aug-16 19:31N 47°34' W 052°42'0 0.0
2014-Aug-16 18:29N 47°34' W 052°42'0 0.0
2014-Aug-16 17:32N 47°34' W 052°42'0 0.0
2014-Aug-16 16:31N 47°34' W 052°42'0 0.0
2014-Aug-16 15:29N 47°34' W 052°42'0 0.0
2014-Aug-16 14:33N 47°34' W 052°42'0 0.0
2014-Aug-16 13:32N 47°34' W 052°42'0 0.0
2014-Aug-16 12:30N 47°34' W 052°42'0 0.0
2014-Aug-16 11:33N 47°34' W 052°42'0 0.0
2014-Aug-16 10:32N 47°34' W 052°42'0 0.0
2014-Aug-16 09:30N 47°34' W 052°42'0 0.0
2014-Aug-16 08:33N 47°34' W 052°42'0 0.0
2014-Aug-16 07:32N 47°34' W 052°42'0 0.0
2014-Aug-16 06:30N 47°34' W 052°42'0 0.0
2014-Aug-16 05:29N 47°34' W 052°42'0 0.0
2014-Aug-16 04:32N 47°34' W 052°42'0 0.0
2014-Aug-16 03:31N 47°34' W 052°42'0 0.0
2014-Aug-16 02:29N 47°34' W 052°42'0 0.0
2014-Aug-16 01:32N 47°34' W 052°42'0 0.0
2014-Aug-16 00:29N 47°34' W 052°42'0 0.0
2014-Aug-15 23:33N 47°34' W 052°42'0 0.0
2014-Aug-15 22:32N 47°34' W 052°42'0 0.0
2014-Aug-15 21:29N 47°34' W 052°42'0 0.0
2014-Aug-15 20:33N 47°34' W 052°42'0 0.0
2014-Aug-15 19:31N 47°34' W 052°42'0 0.0
2014-Aug-15 18:29N 47°34' W 052°42'2 2.6
2014-Aug-15 17:32N 47°34' W 052°39'1 0.8
2014-Aug-15 16:31N 47°33' W 052°38'0 0.0
2014-Aug-15 15:30N 47°33' W 052°38'0 0.4
2014-Aug-15 14:33N 47°33' W 052°37'0 0.4
2014-Aug-15 13:30N 47°33' W 052°38'2 1.6
2014-Aug-15 12:33N 47°34' W 052°40'1 1.5
2014-Aug-15 11:32N 47°34' W 052°42'0 0.0
2014-Aug-15 10:30N 47°34' W 052°42'0 0.0
2014-Aug-15 09:29N 47°34' W 052°42'0 0.0
2014-Aug-15 08:33N 47°34' W 052°42'0 0.0
2014-Aug-15 07:32N 47°34' W 052°42'0 0.0
2014-Aug-15 06:29N 47°34' W 052°42'0 0.0
2014-Aug-15 05:29N 47°34' W 052°42'0 0.0
2014-Aug-15 04:33N 47°34' W 052°42'0 0.0
2014-Aug-15 03:32N 47°34' W 052°42'0 0.0
2014-Aug-15 02:30N 47°34' W 052°42'0 0.0
2014-Aug-15 01:29N 47°34' W 052°42'0 0.0
2014-Aug-15 00:32N 47°34' W 052°42'0 0.0
2014-Aug-14 23:31N 47°34' W 052°42'0 0.0
2014-Aug-14 22:31N 47°34' W 052°42'0 0.3
2014-Aug-14 21:30N 47°34' W 052°42'0 0.0
2014-Aug-14 20:33N 47°34' W 052°42'0 0.1
2014-Aug-14 19:32N 47°34' W 052°42'0 0.0
2014-Aug-14 18:29N 47°34' W 052°42'6 5.8
2014-Aug-14 17:31N 47°36' W 052°34'0 0.1
2014-Aug-14 16:29N 47°36' W 052°35'1 0.7
2014-Aug-14 15:33N 47°36' W 052°35'0 0.4
2014-Aug-14 14:32N 47°36' W 052°36'0 0.0
2014-Aug-14 13:30N 47°36' W 052°36'0 0.0
2014-Aug-14 12:33N 47°36' W 052°36'2 2.3
2014-Aug-14 11:31N 47°34' W 052°39'2 2.0
2014-Aug-14 10:33N 47°34' W 052°42'0 0.0
2014-Aug-14 09:31N 47°34' W 052°42'0 0.0
2014-Aug-14 08:30N 47°34' W 052°42'0 0.0
2014-Aug-14 07:33N 47°34' W 052°42'0 0.0
2014-Aug-14 06:32N 47°34' W 052°42'0 0.0
2014-Aug-14 05:31N 47°34' W 052°42'0 0.0
2014-Aug-14 04:29N 47°34' W 052°42'0 0.0
2014-Aug-14 03:32N 47°34' W 052°42'0 0.0
2014-Aug-14 02:31N 47°34' W 052°42'0 0.0
2014-Aug-14 01:30N 47°34' W 052°42'0 0.0
2014-Aug-14 00:29N 47°34' W 052°42'0 0.0
2014-Aug-13 23:32N 47°34' W 052°42'0 0.0
2014-Aug-13 22:30N 47°34' W 052°42'0 0.0
2014-Aug-13 21:33N 47°34' W 052°42'0 0.0
2014-Aug-13 20:32N 47°34' W 052°42'0 0.0
2014-Aug-13 19:30N 47°34' W 052°42'0 0.1
2014-Aug-13 18:33N 47°34' W 052°42'0 0.0
2014-Aug-13 17:32N 47°34' W 052°42'0 0.0
2014-Aug-13 16:31N 47°34' W 052°42'0 0.0
2014-Aug-13 15:29N 47°34' W 052°42'0 0.0
2014-Aug-13 14:32N 47°34' W 052°42'0 0.0
2014-Aug-13 13:30N 47°34' W 052°42'0 0.0
2014-Aug-13 12:33N 47°34' W 052°42'0 0.0
2014-Aug-13 11:32N 47°34' W 052°42'0 0.0
2014-Aug-13 10:31N 47°34' W 052°42'0 0.0
2014-Aug-13 09:30N 47°34' W 052°42'0 0.0
2014-Aug-13 08:33N 47°34' W 052°42'0 0.0
2014-Aug-13 07:32N 47°34' W 052°42'0 0.0
2014-Aug-13 06:30N 47°34' W 052°42'0 0.0
2014-Aug-13 05:29N 47°34' W 052°42'0 0.0
2014-Aug-13 04:33N 47°34' W 052°42'0 0.0
2014-Aug-13 03:31N 47°34' W 052°42'0 0.0
2014-Aug-13 02:30N 47°34' W 052°42'0 0.0
2014-Aug-13 01:32N 47°34' W 052°42'0 0.0
2014-Aug-13 00:32N 47°34' W 052°42'0 0.0
2014-Aug-12 23:30N 47°34' W 052°42'9 9.5
2014-Aug-12 22:33N 47°33' W 052°29'1211.3
2014-Aug-12 21:32N 47°31' W 052°12'  

Dump ship's entire track history